»·PEaware :: N821AN L88-KSBP

N821AN :: L88-KSBP

FLIGHT INFORMATION

Flight Status: Arrived
Operator: Privately registered:
United States
More flights under this callsign
Pilot: Andre N. (13929)
Aircraft: CESSNA 172 SKYHAWK
(C172)
More flights by this aircraft type
Origin: L88 New Cuyama
United States
Destination: KSBP San Luis Co Regl
United States
More flights between these airports :: More routes between these airports
Route:
File this flight plan on PilotEdge
Remarks: CAT2
Altitude:
(Current/Filed)
6,500ft
Speed:
(Current/Filed)
120kts
Departed: 07-Mar-18 12:38 PM
Arrived: 07-Mar-18 02:12 PM
Distance/Time
Traveled:
50nm/1:34
Distance/Time
To Go:
Arrived

Flight Plot

Page will automatically refresh every two minutes.


Map Options




Map Legend


Flown Route
Filed Route
Departure Airport
Arrival Airport
Navaid (VOR, NDB)
Fix

Horizontal Profiles

Position Reports

Time Latitude Longitude Heading Altitude Ground
Speed
07-Mar-18 12:40 34.942854 -119.690286 204 2206ft 0kts
07-Mar-18 12:41 34.942850 -119.690620 284 2206ft 5kts
07-Mar-18 12:42 34.941452 -119.689405 131 2206ft 14kts
07-Mar-18 12:43 34.939196 -119.683753 116 2210ft 19kts
07-Mar-18 12:44 34.937724 -119.680155 285 2216ft 3kts
07-Mar-18 12:45 34.942400 -119.693516 285 2487ft 81kts
07-Mar-18 12:46 34.954054 -119.720200 304 3009ft 98kts
07-Mar-18 12:47 34.974307 -119.740457 318 3684ft 87kts
07-Mar-18 12:48 34.993237 -119.756992 318 4477ft 82kts
07-Mar-18 12:49 35.012126 -119.773068 318 5162ft 87kts
07-Mar-18 12:50 35.032560 -119.790489 318 5776ft 91kts
07-Mar-18 12:51 35.053243 -119.807883 318 6378ft 90kts
07-Mar-18 12:52 35.075485 -119.826678 319 6647ft 112kts
07-Mar-18 12:53 35.102413 -119.850603 312 6637ft 124kts
07-Mar-18 12:54 35.119489 -119.878678 309 6644ft 121kts
07-Mar-18 12:55 35.144834 -119.907016 316 6637ft 126kts
07-Mar-18 12:56 35.164252 -119.940315 290 6639ft 121kts
07-Mar-18 12:57 35.178050 -119.978189 290 6637ft 122kts
07-Mar-18 12:58 35.186026 -120.012947 217 6631ft 114kts
07-Mar-18 12:59 35.179763 -120.042290 293 6639ft 116kts
07-Mar-18 13:00 35.188014 -120.080052 272 6637ft 117kts
07-Mar-18 13:01 35.191333 -120.119854 274 6636ft 117kts
07-Mar-18 13:02 35.194870 -120.159388 275 6636ft 116kts
07-Mar-18 13:03 35.198729 -120.198959 274 6636ft 117kts
07-Mar-18 13:04 35.202356 -120.238478 274 6636ft 117kts
07-Mar-18 13:05 35.205771 -120.277911 273 6636ft 117kts
07-Mar-18 13:06 35.209125 -120.316780 273 6635ft 113kts
07-Mar-18 13:07 35.212397 -120.354170 277 6542ft 119kts
07-Mar-18 13:08 35.215630 -120.394239 272 6531ft 116kts
07-Mar-18 13:09 35.215435 -120.433668 270 6534ft 116kts
07-Mar-18 13:10 35.214925 -120.466945 270 6533ft 117kts
07-Mar-18 13:11 35.214109 -120.506617 269 6049ft 121kts
07-Mar-18 13:12 35.213580 -120.545140 274 4111ft 129kts
07-Mar-18 13:13 35.207138 -120.578289 186 3269ft 94kts
07-Mar-18 13:14 35.184005 -120.566708 155 3606ft 94kts
07-Mar-18 13:15 35.166002 -120.553635 143 3810ft 90kts
07-Mar-18 13:16 35.156154 -120.532293 15 4010ft 88kts
07-Mar-18 13:17 35.175597 -120.548252 255 3605ft 88kts
07-Mar-18 13:18 35.157270 -120.541735 135 3692ft 84kts
07-Mar-18 13:19 35.144608 -120.520304 79 3826ft 79kts
07-Mar-18 13:20 35.165119 -120.526463 327 3348ft 96kts
07-Mar-18 13:21 35.185013 -120.549837 304 2727ft 102kts
07-Mar-18 13:37 34.942855 -119.690286 204 2206ft 0kts
07-Mar-18 13:38 34.942855 -119.690286 204 2206ft 0kts
07-Mar-18 13:39 34.942854 -119.690286 204 2206ft 0kts
07-Mar-18 13:40 34.942805 -119.690516 287 2206ft 5kts
07-Mar-18 13:41 34.941209 -119.688306 101 2206ft 23kts
07-Mar-18 13:42 34.937824 -119.680447 118 2216ft 25kts
07-Mar-18 13:43 34.937742 -119.680184 296 2216ft 0kts
07-Mar-18 13:44 34.942856 -119.700200 273 2563ft 93kts
07-Mar-18 13:45 34.946374 -119.732352 289 3093ft 99kts
07-Mar-18 13:46 34.959647 -119.761553 300 3661ft 94kts
07-Mar-18 13:47 34.972482 -119.787914 300 4345ft 87kts
07-Mar-18 13:48 34.983896 -119.811984 295 5009ft 83kts
07-Mar-18 13:49 34.991541 -119.831958 292 5553ft 80kts
07-Mar-18 13:50 34.997044 -119.847394 292 5988ft 75kts
07-Mar-18 13:51 35.001167 -119.858992 292 6330ft 70kts
07-Mar-18 13:52 35.009385 -119.882345 292 6496ft 105kts
07-Mar-18 13:53 35.021449 -119.917084 292 6485ft 118kts
07-Mar-18 13:54 35.032950 -119.953867 290 6484ft 128kts
07-Mar-18 13:55 35.044921 -119.994468 288 6483ft 129kts
07-Mar-18 13:56 35.055975 -120.034492 288 6483ft 129kts
07-Mar-18 13:57 35.067237 -120.075553 288 6483ft 129kts
07-Mar-18 13:58 35.078441 -120.116695 288 6483ft 129kts
07-Mar-18 13:59 35.089726 -120.158435 288 6483ft 129kts
07-Mar-18 14:00 35.100910 -120.200104 288 6483ft 129kts
07-Mar-18 14:01 35.110379 -120.235648 288 6483ft 128kts
07-Mar-18 14:02 35.119884 -120.271549 287 6452ft 128kts
07-Mar-18 14:03 35.129104 -120.306650 287 6477ft 119kts
07-Mar-18 14:04 35.138561 -120.341442 290 6479ft 99kts
07-Mar-18 14:05 35.147832 -120.371756 290 6482ft 95kts
07-Mar-18 14:06 35.156677 -120.400867 290 6483ft 94kts
07-Mar-18 14:07 35.165494 -120.430075 290 6483ft 94kts
07-Mar-18 14:08 35.162085 -120.455931 186 6481ft 93kts
07-Mar-18 14:09 35.147105 -120.436923 106 6483ft 93kts
07-Mar-18 14:10 35.139921 -120.408144 106 6464ft 96kts
07-Mar-18 14:11 35.145923 -120.386825 349 6436ft 81kts
07-Mar-18 14:12 35.154445 -120.415915 283 5771ft 108kts
07-Mar-18 14:13 35.161655 -120.452366 286 4744ft 112kts
07-Mar-18 14:14 35.170079 -120.490978 287 3777ft 120kts
07-Mar-18 14:15 35.179422 -120.529326 290 3077ft 123kts
07-Mar-18 14:16 35.193549 -120.566448 305 2281ft 119kts
07-Mar-18 14:17 35.213277 -120.599731 308 1289ft 125kts
07-Mar-18 14:18 35.228999 -120.626346 308 455ft 82kts
07-Mar-18 14:19 35.238331 -120.642554 303 214ft 34kts
07-Mar-18 14:20 35.239852 -120.643968 52 214ft 0kts
07-Mar-18 14:21 35.239875 -120.643931 54 214ft 0kts
07-Mar-18 14:22 35.239875 -120.643931 54 214ft 0kts
07-Mar-18 14:23 35.238479 -120.641295 124 214ft 20kts
07-Mar-18 14:24 35.237521 -120.636542 5 214ft 7kts
07-Mar-18 14:25 35.237600 -120.636544 358 214ft 0kts

Navigation Log

Ident Type
1. L88 Airport
2. KSBP Airport